createdAt,value
2018-12-31T00:01:24.183Z,83.09
2018-12-31T00:03:51.819Z,83.24
2018-12-31T00:06:19.449Z,83.40
2018-12-31T00:08:47.373Z,83.50
2018-12-31T00:11:15.001Z,83.55
2018-12-31T00:13:42.904Z,83.61
2018-12-31T00:16:10.875Z,83.61
2018-12-31T00:18:38.581Z,83.57
2018-12-31T00:21:06.216Z,83.56
2018-12-31T00:23:33.852Z,83.54
2018-12-31T00:26:01.730Z,83.48
2018-12-31T00:28:29.355Z,84.04
2018-12-31T00:30:56.987Z,84.02
2018-12-31T00:33:24.607Z,83.90
2018-12-31T00:35:52.255Z,84.29
2018-12-31T00:38:20.144Z,84.24
2018-12-31T00:40:48.113Z,84.48
2018-12-31T00:43:15.729Z,84.51
2018-12-31T00:45:43.747Z,84.55
2018-12-31T00:48:11.715Z,84.50
2018-12-31T00:50:39.353Z,84.49
2018-12-31T00:53:06.978Z,84.23
2018-12-31T00:55:35.001Z,84.52
2018-12-31T00:58:02.983Z,84.56
2018-12-31T01:00:30.619Z,84.30
2018-12-31T01:02:58.509Z,84.21
2018-12-31T01:05:26.476Z,84.48
2018-12-31T01:07:54.550Z,84.50
2018-12-31T01:10:22.187Z,84.78
2018-12-31T01:12:49.820Z,84.71
2018-12-31T01:15:17.738Z,84.81
2018-12-31T01:17:45.712Z,84.82
2018-12-31T01:20:13.336Z,84.82
2018-12-31T01:22:41.247Z,84.81
2018-12-31T01:25:09.211Z,84.97
2018-12-31T01:27:37.180Z,84.70
2018-12-31T01:30:04.816Z,84.59
2018-12-31T01:32:32.713Z,84.30
2018-12-31T01:35:00.681Z,84.34
2018-12-31T01:37:28.665Z,84.32
2018-12-31T01:39:56.307Z,84.41
2018-12-31T01:42:24.285Z,84.49
2018-12-31T01:44:51.919Z,84.45
2018-12-31T01:47:19.541Z,84.50
2018-12-31T01:49:47.492Z,84.33
2018-12-31T01:52:15.120Z,84.40
2018-12-31T01:54:43.101Z,84.35
2018-12-31T01:57:10.729Z,84.07
2018-12-31T01:59:38.635Z,84.25
2018-12-31T02:02:06.606Z,84.41
2018-12-31T02:04:34.583Z,84.49
2018-12-31T02:07:02.454Z,84.60
2018-12-31T02:09:30.412Z,84.67
2018-12-31T02:11:58.378Z,84.71
2018-12-31T02:14:26.348Z,84.74
2018-12-31T02:16:54.322Z,84.75
2018-12-31T02:19:22.285Z,84.72
2018-12-31T02:21:50.259Z,84.70
2018-12-31T02:24:18.233Z,84.72
2018-12-31T02:26:46.197Z,84.76
2018-12-31T02:29:14.274Z,84.74
2018-12-31T02:31:42.238Z,84.73
2018-12-31T02:34:09.863Z,84.83
2018-12-31T02:36:37.785Z,84.85
2018-12-31T02:39:05.740Z,84.76
2018-12-31T02:41:33.376Z,84.83
2018-12-31T02:44:01.278Z,84.87
2018-12-31T02:46:29.236Z,84.82
2018-12-31T02:48:56.880Z,84.82
2018-12-31T02:51:24.492Z,85.09
2018-12-31T02:53:52.430Z,84.98
2018-12-31T02:56:20.402Z,84.72
2018-12-31T02:58:48.372Z,84.81
2018-12-31T03:01:16.338Z,84.66
2018-12-31T03:03:43.968Z,84.56
2018-12-31T03:06:11.600Z,84.65
2018-12-31T03:08:39.535Z,84.63
2018-12-31T03:11:07.521Z,84.80
2018-12-31T03:13:35.471Z,84.81
2018-12-31T03:16:03.107Z,84.78
2018-12-31T03:18:31.000Z,84.80
2018-12-31T03:20:58.636Z,84.56
2018-12-31T03:23:26.541Z,84.73
2018-12-31T03:25:54.499Z,84.62
2018-12-31T03:28:22.489Z,84.58
2018-12-31T03:30:50.463Z,84.59
2018-12-31T03:33:18.083Z,84.53
2018-12-31T03:35:45.969Z,84.60
2018-12-31T03:38:13.586Z,84.60
2018-12-31T03:40:41.224Z,84.46
2018-12-31T03:43:08.848Z,84.63
2018-12-31T03:45:36.829Z,84.78
2018-12-31T03:48:04.794Z,84.77
2018-12-31T03:50:32.764Z,84.90
2018-12-31T03:53:00.398Z,84.95
2018-12-31T03:55:28.036Z,85.01
2018-12-31T03:57:55.956Z,85.00
2018-12-31T04:00:23.570Z,85.06
2018-12-31T04:02:51.481Z,85.19
2018-12-31T04:05:19.462Z,85.17
2018-12-31T04:07:53.045Z,85.19
2018-12-31T04:10:16.424Z,84.91
2018-12-31T04:12:44.395Z,85.29
2018-12-31T04:15:12.383Z,85.29
2018-12-31T04:17:39.999Z,85.35
2018-12-31T04:20:07.890Z,85.35
2018-12-31T04:22:35.519Z,85.35
2018-12-31T04:25:03.433Z,85.24
2018-12-31T04:27:31.389Z,85.45
2018-12-31T04:29:59.088Z,85.38
2018-12-31T04:32:27.042Z,85.38
2018-12-31T04:34:54.986Z,85.37
2018-12-31T04:37:22.954Z,85.27
2018-12-31T04:39:50.930Z,85.27
2018-12-31T04:42:18.567Z,85.40
2018-12-31T04:44:46.453Z,85.61
2018-12-31T04:47:14.437Z,85.92
2018-12-31T04:49:42.046Z,85.92
2018-12-31T04:52:09.682Z,85.66
2018-12-31T04:54:37.614Z,85.80
2018-12-31T04:57:05.592Z,85.78
2018-12-31T04:59:33.294Z,85.79
2018-12-31T05:02:01.221Z,85.97
2018-12-31T05:04:28.843Z,85.97
2018-12-31T05:06:56.852Z,85.76
2018-12-31T05:09:24.475Z,85.89
2018-12-31T05:11:52.112Z,85.91
2018-12-31T05:14:20.046Z,85.87
2018-12-31T05:16:47.686Z,85.87
2018-12-31T05:19:15.319Z,85.98
2018-12-31T05:21:42.947Z,85.73
2018-12-31T05:24:10.898Z,85.95
2018-12-31T05:26:38.868Z,85.84
2018-12-31T05:29:06.840Z,85.98
2018-12-31T05:31:34.811Z,86.11
2018-12-31T05:34:02.715Z,86.11
2018-12-31T05:36:30.645Z,86.10
2018-12-31T05:38:58.611Z,86.04
2018-12-31T05:41:26.234Z,86.40
2018-12-31T05:43:53.868Z,86.69
2018-12-31T05:46:21.495Z,86.69
2018-12-31T05:48:49.112Z,86.43
2018-12-31T05:51:17.051Z,86.58
2018-12-31T05:53:45.009Z,86.71
2018-12-31T05:56:12.630Z,86.53
2018-12-31T05:58:40.526Z,86.53
2018-12-31T06:01:08.151Z,86.48
2018-12-31T06:03:36.060Z,86.23
2018-12-31T06:06:04.029Z,86.66
2018-12-31T06:08:32.015Z,86.66
2018-12-31T06:10:59.968Z,86.86
2018-12-31T06:13:27.940Z,86.93
2018-12-31T06:15:57.179Z,87.11
2018-12-31T06:18:25.004Z,87.17
2018-12-31T06:20:52.625Z,87.26
2018-12-31T06:23:20.258Z,87.18
2018-12-31T06:25:48.199Z,87.25
2018-12-31T06:28:16.167Z,87.12
2018-12-31T06:30:43.791Z,87.16
2018-12-31T06:33:11.691Z,87.53
2018-12-31T06:35:39.577Z,87.53
2018-12-31T06:38:07.534Z,87.82
2018-12-31T06:40:35.500Z,87.92
2018-12-31T06:43:03.139Z,87.89
2018-12-31T06:45:30.764Z,88.05
2018-12-31T06:47:58.393Z,88.05
2018-12-31T06:50:26.354Z,87.72
2018-12-31T06:52:53.984Z,87.71
2018-12-31T06:55:21.607Z,87.49
2018-12-31T06:57:49.548Z,87.49
2018-12-31T07:00:17.515Z,87.72
2018-12-31T07:02:45.486Z,87.48
2018-12-31T07:05:13.106Z,87.27
2018-12-31T07:07:40.730Z,87.11
2018-12-31T07:10:08.353Z,87.08
2018-12-31T07:12:36.235Z,87.12
2018-12-31T07:15:04.224Z,87.08
2018-12-31T07:17:32.174Z,86.92
2018-12-31T07:20:00.163Z,86.91
2018-12-31T07:22:27.779Z,86.80
2018-12-31T07:24:55.676Z,86.97
2018-12-31T07:27:23.670Z,87.06
2018-12-31T07:29:51.307Z,86.75
2018-12-31T07:32:18.938Z,86.82
2018-12-31T07:34:46.554Z,86.54
2018-12-31T07:37:14.189Z,86.52
2018-12-31T07:39:42.060Z,86.56
2018-12-31T07:42:10.048Z,86.55
2018-12-31T07:44:37.667Z,86.67
2018-12-31T07:47:05.294Z,86.60
2018-12-31T07:49:33.240Z,86.76
2018-12-31T07:52:01.193Z,86.76
2018-12-31T07:54:28.825Z,86.66
2018-12-31T07:56:56.719Z,86.76
2018-12-31T07:59:24.356Z,86.91
2018-12-31T08:01:52.269Z,87.00
2018-12-31T08:04:20.227Z,87.07
2018-12-31T08:06:48.199Z,87.09
2018-12-31T08:09:16.162Z,87.16
2018-12-31T08:11:44.126Z,86.97
2018-12-31T08:14:12.114Z,86.87
2018-12-31T08:16:39.753Z,86.92
2018-12-31T08:19:07.382Z,86.88
2018-12-31T08:21:35.292Z,86.83
2018-12-31T08:24:03.272Z,86.78
2018-12-31T08:26:31.232Z,86.63
2018-12-31T08:28:59.209Z,86.46
2018-12-31T08:31:27.173Z,86.45
2018-12-31T08:33:55.140Z,86.48
2018-12-31T08:36:22.764Z,86.35
2018-12-31T08:38:50.475Z,86.24
2018-12-31T08:41:18.433Z,86.09
2018-12-31T08:43:46.071Z,86.03
2018-12-31T08:46:13.692Z,85.82
2018-12-31T08:48:41.329Z,85.40
2018-12-31T08:51:08.953Z,85.34
2018-12-31T08:53:36.851Z,85.07
2018-12-31T08:56:04.477Z,84.99
2018-12-31T08:58:32.190Z,85.29
2018-12-31T09:00:59.818Z,85.39
2018-12-31T09:03:27.804Z,85.43
2018-12-31T09:05:56.079Z,85.31
2018-12-31T09:08:24.058Z,85.36
2018-12-31T09:10:51.694Z,85.17
2018-12-31T09:13:19.325Z,85.24
2018-12-31T09:15:46.947Z,85.07
2018-12-31T09:18:14.910Z,84.81
2018-12-31T09:20:42.876Z,84.71
2018-12-31T09:23:10.507Z,84.55
2018-12-31T09:25:38.409Z,84.18
2018-12-31T09:28:06.042Z,84.20
2018-12-31T09:30:33.933Z,83.92
2018-12-31T09:33:01.573Z,83.33
2018-12-31T09:35:29.195Z,83.18
2018-12-31T09:37:56.827Z,83.18
2018-12-31T09:40:24.468Z,83.40
2018-12-31T09:42:52.452Z,83.30
2018-12-31T09:45:20.440Z,83.18
2018-12-31T09:47:48.394Z,83.28
2018-12-31T09:50:16.370Z,83.27
2018-12-31T09:52:44.333Z,83.42
2018-12-31T09:55:11.967Z,83.17
2018-12-31T09:57:39.868Z,83.42
2018-12-31T10:00:07.831Z,82.94
2018-12-31T10:02:35.831Z,83.00
2018-12-31T10:05:03.448Z,82.75
2018-12-31T10:07:31.361Z,82.52
2018-12-31T10:09:59.300Z,82.48
2018-12-31T10:12:26.945Z,82.55
2018-12-31T10:14:54.646Z,82.35
2018-12-31T10:17:22.603Z,81.87
2018-12-31T10:19:50.565Z,81.87
2018-12-31T10:22:18.197Z,81.95
2018-12-31T10:24:45.834Z,81.53
2018-12-31T10:27:13.757Z,81.73
2018-12-31T10:29:41.743Z,81.67
2018-12-31T10:32:09.370Z,81.26
2018-12-31T10:34:36.999Z,81.53
2018-12-31T10:37:04.920Z,81.44
2018-12-31T10:39:32.561Z,81.51
2018-12-31T10:42:00.267Z,81.75
2018-12-31T10:44:27.895Z,81.46
2018-12-31T10:46:55.875Z,81.60
2018-12-31T10:49:23.843Z,81.36
2018-12-31T10:51:51.819Z,81.40
2018-12-31T10:54:19.495Z,81.03
2018-12-31T10:56:47.445Z,81.05
2018-12-31T10:59:15.416Z,80.57
2018-12-31T11:01:43.383Z,80.70
2018-12-31T11:04:11.023Z,80.08
2018-12-31T11:06:38.913Z,79.97
2018-12-31T11:09:06.556Z,80.21
2018-12-31T11:11:34.470Z,79.65
2018-12-31T11:14:02.418Z,79.79
2018-12-31T11:16:30.384Z,80.52
2018-12-31T11:18:58.392Z,80.14
2018-12-31T11:21:26.019Z,79.30
2018-12-31T11:23:53.649Z,79.72
2018-12-31T11:26:21.564Z,80.08
2018-12-31T11:28:49.515Z,79.64
2018-12-31T11:31:17.147Z,80.13
2018-12-31T11:33:45.051Z,80.10
2018-12-31T11:36:13.021Z,80.32
2018-12-31T11:38:40.984Z,80.22
2018-12-31T11:41:08.955Z,80.23
2018-12-31T11:43:36.580Z,80.13
2018-12-31T11:46:04.483Z,80.10
2018-12-31T11:48:32.470Z,79.89
2018-12-31T11:51:00.127Z,80.04
2018-12-31T11:53:28.087Z,80.04
2018-12-31T11:55:56.056Z,79.72
2018-12-31T11:58:24.030Z,79.97
2018-12-31T12:00:51.992Z,80.00
2018-12-31T12:03:19.966Z,79.75
2018-12-31T12:05:47.935Z,80.34
2018-12-31T12:08:15.800Z,79.72
2018-12-31T12:10:43.436Z,79.86
2018-12-31T12:13:11.331Z,80.08
2018-12-31T12:15:39.298Z,79.79
2018-12-31T12:18:06.925Z,79.94
2018-12-31T12:20:34.551Z,79.76
2018-12-31T12:23:02.492Z,80.16
2018-12-31T12:25:30.464Z,80.34
2018-12-31T12:27:58.433Z,80.12
2018-12-31T12:30:26.613Z,79.97
2018-12-31T12:32:54.597Z,80.28
2018-12-31T12:35:22.230Z,79.82
2018-12-31T12:37:49.864Z,79.47
2018-12-31T12:40:17.518Z,80.10
2018-12-31T12:42:45.111Z,80.21
2018-12-31T12:45:12.735Z,80.09
2018-12-31T12:47:40.654Z,79.93
2018-12-31T12:50:08.640Z,79.22
2018-12-31T12:52:36.264Z,79.22
2018-12-31T12:55:04.154Z,79.08
2018-12-31T12:57:32.124Z,79.04
2018-12-31T13:00:00.174Z,78.53
2018-12-31T13:02:28.065Z,79.10
2018-12-31T13:05:03.391Z,78.71
2018-12-31T13:07:25.537Z,78.62
2018-12-31T13:09:53.608Z,79.03
2018-12-31T13:12:21.580Z,78.80
2018-12-31T13:14:49.552Z,79.38
2018-12-31T13:17:17.252Z,79.16
2018-12-31T13:19:44.879Z,79.41
2018-12-31T13:22:12.913Z,79.21
2018-12-31T13:24:40.819Z,79.11
2018-12-31T13:27:08.441Z,79.28
2018-12-31T13:29:36.361Z,79.04
2018-12-31T13:32:03.986Z,79.45
2018-12-31T13:34:31.876Z,79.67
2018-12-31T13:36:59.682Z,79.41
2018-12-31T13:39:27.306Z,79.12
2018-12-31T13:41:55.269Z,79.39
2018-12-31T13:44:23.244Z,79.45
2018-12-31T13:46:50.871Z,79.13
2018-12-31T13:49:19.175Z,79.05
2018-12-31T13:51:46.798Z,79.46
2018-12-31T13:54:14.421Z,79.39
2018-12-31T13:56:42.367Z,79.29
2018-12-31T13:59:10.343Z,78.94
2018-12-31T14:01:38.330Z,79.09
2018-12-31T14:04:06.284Z,79.79
2018-12-31T14:06:34.246Z,79.64
2018-12-31T14:09:02.215Z,79.69
2018-12-31T14:11:30.188Z,80.13
2018-12-31T14:13:58.156Z,80.32
2018-12-31T14:16:25.970Z,80.11
2018-12-31T14:18:53.891Z,80.21
2018-12-31T14:37:42.844Z,74.25
2018-12-31T14:40:11.290Z,73.37
2018-12-31T14:42:40.364Z,73.23
2018-12-31T14:45:09.386Z,74.61
2018-12-31T14:47:39.036Z,76.49
2018-12-31T14:50:07.396Z,77.18
2018-12-31T14:52:37.218Z,77.16
2018-12-31T14:55:06.404Z,77.44
2018-12-31T14:57:34.739Z,77.62
2018-12-31T15:00:03.343Z,77.82
2018-12-31T15:02:31.709Z,78.18
2018-12-31T15:05:00.432Z,77.72
2018-12-31T15:07:28.868Z,77.91
2018-12-31T15:09:58.760Z,77.48
2018-12-31T15:12:28.636Z,77.96
2018-12-31T15:14:57.006Z,77.55
2018-12-31T15:17:26.058Z,78.34
2018-12-31T15:19:54.794Z,78.63
2018-12-31T15:22:29.056Z,78.79
2018-12-31T15:30:04.733Z,72.86
2018-12-31T15:32:32.811Z,76.85
2018-12-31T15:35:00.422Z,79.96
2018-12-31T15:37:28.334Z,80.96
2018-12-31T15:39:56.128Z,81.62
2018-12-31T15:42:23.757Z,81.68
2018-12-31T15:44:51.731Z,82.22
2018-12-31T15:47:19.706Z,82.25
2018-12-31T15:49:47.672Z,82.74
2018-12-31T15:52:15.641Z,83.43
2018-12-31T15:54:43.612Z,83.80
2018-12-31T15:57:11.581Z,83.68
2018-12-31T15:59:39.213Z,83.84
2018-12-31T16:02:06.840Z,83.83
2018-12-31T16:04:34.781Z,84.17
2018-12-31T16:07:02.843Z,84.09
2018-12-31T16:09:30.714Z,84.09
2018-12-31T16:11:58.684Z,84.07
2018-12-31T16:14:26.652Z,83.96
2018-12-31T16:16:54.289Z,83.84
2018-12-31T16:19:21.916Z,83.69
2018-12-31T16:21:49.542Z,83.22
2018-12-31T16:24:17.513Z,81.71
2018-12-31T16:26:45.194Z,81.83
2018-12-31T16:29:13.053Z,82.23
2018-12-31T16:31:41.008Z,81.98
2018-12-31T16:34:08.913Z,81.59
2018-12-31T16:36:36.546Z,81.56
2018-12-31T16:39:04.292Z,81.49
2018-12-31T16:41:32.273Z,81.07
2018-12-31T16:43:59.937Z,81.08
2018-12-31T16:46:27.907Z,81.34
2018-12-31T16:48:55.976Z,81.47
2018-12-31T16:51:23.599Z,81.50
2018-12-31T16:53:51.503Z,81.98
2018-12-31T16:56:19.479Z,81.90
2018-12-31T16:58:47.445Z,81.93
2018-12-31T17:01:15.517Z,81.69
2018-12-31T17:03:43.221Z,81.38
2018-12-31T17:06:10.845Z,81.53
2018-12-31T17:08:38.483Z,81.18
2018-12-31T17:11:06.368Z,81.66
2018-12-31T17:13:34.068Z,81.70
2018-12-31T17:16:01.974Z,81.32
2018-12-31T17:18:29.871Z,81.28
2018-12-31T17:20:57.842Z,81.34
2018-12-31T17:23:25.546Z,81.62
2018-12-31T17:25:53.170Z,81.58
2018-12-31T17:28:21.131Z,81.61
2018-12-31T17:30:48.754Z,81.60
2018-12-31T17:33:16.666Z,81.92
2018-12-31T17:35:44.633Z,82.02
2018-12-31T17:38:12.603Z,81.89
2018-12-31T17:40:40.572Z,81.45
2018-12-31T17:43:08.541Z,81.62
2018-12-31T17:45:36.160Z,81.78
2018-12-31T17:48:04.079Z,81.80
2018-12-31T17:50:31.701Z,81.48
2018-12-31T17:52:59.339Z,81.77
2018-12-31T17:55:26.962Z,81.98
2018-12-31T17:57:55.137Z,82.12
2018-12-31T18:00:23.103Z,82.03
2018-12-31T18:02:51.093Z,82.29
2018-12-31T18:05:19.055Z,82.17
2018-12-31T18:07:47.013Z,82.29
2018-12-31T18:10:14.979Z,82.42
2018-12-31T18:12:42.949Z,82.26
2018-12-31T18:15:10.917Z,82.60
2018-12-31T18:17:38.895Z,82.66
2018-12-31T18:20:06.876Z,82.85
2018-12-31T18:22:34.834Z,82.99
2018-12-31T18:25:02.635Z,83.68
2018-12-31T18:27:30.568Z,84.16
2018-12-31T18:29:58.193Z,84.71
2018-12-31T18:32:26.092Z,85.02
2018-12-31T18:34:54.060Z,85.09
2018-12-31T18:37:22.033Z,84.97
2018-12-31T18:39:50.023Z,84.80
2018-12-31T18:42:18.672Z,85.21
2018-12-31T18:44:46.760Z,85.02
2018-12-31T18:47:14.732Z,84.77
2018-12-31T18:49:42.371Z,84.83
2018-12-31T18:52:10.672Z,84.93
2018-12-31T18:54:38.642Z,84.88
2018-12-31T18:57:06.291Z,84.90
2018-12-31T18:59:33.912Z,84.84
2018-12-31T19:02:01.836Z,85.10
2018-12-31T19:04:29.463Z,85.13
2018-12-31T19:06:57.087Z,84.84
2018-12-31T19:09:25.049Z,84.88
2018-12-31T19:11:53.011Z,84.78
2018-12-31T19:14:20.716Z,84.40
2018-12-31T19:16:48.626Z,84.69
2018-12-31T19:19:16.899Z,84.48
2018-12-31T19:21:44.868Z,84.35
2018-12-31T19:24:12.501Z,84.63
2018-12-31T19:26:40.402Z,84.80
2018-12-31T19:29:08.367Z,84.61
2018-12-31T19:31:36.355Z,84.69
2018-12-31T19:34:04.167Z,84.66
2018-12-31T19:36:31.801Z,84.37
2018-12-31T19:38:59.438Z,84.53
2018-12-31T19:41:27.056Z,84.56
2018-12-31T19:43:54.686Z,84.54
2018-12-31T19:46:22.648Z,84.79
2018-12-31T19:48:50.601Z,84.67
2018-12-31T19:51:18.567Z,84.80
2018-12-31T19:53:46.200Z,84.95
2018-12-31T19:56:13.831Z,85.15
2018-12-31T19:58:41.768Z,84.72
2018-12-31T20:01:10.037Z,84.73
2018-12-31T20:03:38.010Z,85.02
2018-12-31T20:06:05.974Z,85.40
2018-12-31T20:08:33.944Z,85.22
2018-12-31T20:11:01.910Z,85.56
2018-12-31T20:13:29.885Z,85.90
2018-12-31T20:15:57.846Z,85.98
2018-12-31T20:18:25.478Z,86.07
2018-12-31T20:20:53.378Z,86.10
2018-12-31T20:23:21.350Z,86.62
2018-12-31T20:25:49.417Z,87.05
2018-12-31T20:28:17.389Z,87.25
2018-12-31T20:30:45.357Z,87.21
2018-12-31T20:33:12.994Z,87.28
2018-12-31T20:35:40.888Z,86.95
2018-12-31T20:38:08.857Z,86.67
2018-12-31T20:40:36.826Z,86.77
2018-12-31T20:43:04.796Z,87.00
2018-12-31T20:45:32.870Z,86.57
2018-12-31T20:48:01.863Z,86.36
2018-12-31T20:50:30.055Z,86.58
2018-12-31T20:52:58.012Z,86.44
2018-12-31T20:55:26.841Z,86.43
2018-12-31T20:57:54.971Z,86.64
2018-12-31T21:00:22.949Z,86.53
2018-12-31T21:02:50.925Z,86.66
2018-12-31T21:05:18.875Z,87.20
2018-12-31T21:07:46.847Z,87.65
2018-12-31T21:10:14.817Z,87.96
2018-12-31T21:12:42.891Z,87.97
2018-12-31T21:15:10.865Z,88.50
2018-12-31T21:17:38.833Z,89.01
2018-12-31T21:20:06.467Z,89.07
2018-12-31T21:22:34.363Z,89.17
2018-12-31T21:25:02.344Z,89.53
2018-12-31T21:27:30.504Z,89.78
2018-12-31T21:29:58.481Z,89.78
2018-12-31T21:32:26.096Z,90.03
2018-12-31T21:34:53.739Z,89.97
2018-12-31T21:37:21.668Z,90.10
2018-12-31T21:39:49.653Z,90.36
2018-12-31T21:42:17.277Z,90.60
2018-12-31T21:44:45.265Z,90.77
2018-12-31T21:47:12.889Z,90.91
2018-12-31T21:49:40.520Z,91.15
2018-12-31T21:52:08.462Z,91.29
2018-12-31T21:54:36.434Z,91.49
2018-12-31T21:57:04.503Z,91.50
2018-12-31T21:59:32.473Z,91.61
2018-12-31T22:02:00.436Z,91.61
2018-12-31T22:04:28.072Z,91.74
2018-12-31T22:06:55.986Z,91.80
2018-12-31T22:09:24.246Z,91.77
2018-12-31T22:11:52.193Z,91.78
2018-12-31T22:14:19.829Z,91.91
2018-12-31T22:16:47.744Z,91.96
2018-12-31T22:19:15.781Z,91.97
2018-12-31T22:21:43.344Z,92.02
2018-12-31T22:24:11.567Z,92.03
2018-12-31T22:26:39.528Z,92.03
2018-12-31T22:29:07.488Z,92.05
2018-12-31T22:31:35.466Z,92.03
2018-12-31T22:34:03.109Z,92.04
2018-12-31T22:36:30.992Z,91.93
2018-12-31T22:38:58.958Z,91.90
2018-12-31T22:41:26.587Z,91.89
2018-12-31T22:43:54.492Z,91.93
2018-12-31T22:46:22.462Z,91.87
2018-12-31T22:48:50.434Z,91.84
2018-12-31T22:51:18.454Z,91.79
2018-12-31T22:53:46.692Z,91.67
2018-12-31T22:56:14.648Z,91.53
2018-12-31T22:58:42.614Z,91.42
2018-12-31T23:01:10.581Z,91.28
2018-12-31T23:03:38.552Z,91.19
2018-12-31T23:06:06.179Z,91.06
2018-12-31T23:08:34.084Z,90.95
2018-12-31T23:11:01.790Z,90.77
2018-12-31T23:13:29.717Z,90.69
2018-12-31T23:15:57.690Z,90.73
2018-12-31T23:18:25.989Z,90.54
2018-12-31T23:20:55.357Z,90.44
2018-12-31T23:23:23.163Z,90.29
2018-12-31T23:25:51.098Z,90.07
2018-12-31T23:28:18.730Z,89.84
2018-12-31T23:30:46.651Z,89.57
2018-12-31T23:33:14.807Z,89.56
2018-12-31T23:35:42.458Z,89.42
2018-12-31T23:38:10.084Z,89.54
2018-12-31T23:40:37.998Z,89.46
2018-12-31T23:43:06.555Z,88.99
2018-12-31T23:45:34.496Z,89.05
2018-12-31T23:48:02.422Z,89.20
2018-12-31T23:50:30.063Z,88.77
2018-12-31T23:52:58.051Z,88.53
2018-12-31T23:55:26.044Z,88.44
2018-12-31T23:57:53.994Z,88.78
